Weather at Holloman Air Force Base

Public forecast

Using degrees Fahrenheit for public forecast. Weather courtesy of forecast.io.

Current aviation weather report (METAR) for Holloman Air Force Base

Retrieved 2022/07/04 10:58 UTC (51 minutes ago):

KHMN 041058Z AUTO 16005KT 10SM CLR 25/13 A3004 RMK AO2 SLP093 T02450131

Aviation forecast (TAF) for Holloman Air Force Base

Forecast is more than 12 hours old.

Retrieved 2022-07-01 01:09 UTC (3 days ago):

TAF KHMN 010100Z 0101/0207 22010G15KT 9999 FEW140 QNH3012INS TEMPO 0101/0103 15015G25KT BECMG 0117/0118 28010G15KT 9999 SCT140 QNH2992INS TS OMTNS TEMPO 0119/0123 VRB15G25KT 9000 -TSRA BKN080CB BKN240 TX35/0122Z TN18/0112Z